sensor_id;sensor_type;location;lat;lon;timestamp;pressure;altitude;pressure_sealevel;temperature;humidity
48204;BME280;33994;50.998;5.864;2022-07-23T00:00:18;101292.81;;;17.82;83.15
48204;BME280;33994;50.998;5.864;2022-07-23T00:03:22;101307.94;;;17.78;83.08
48204;BME280;33994;50.998;5.864;2022-07-23T00:06:28;101307.19;;;17.74;83.66
48204;BME280;33994;50.998;5.864;2022-07-23T00:09:32;101308.22;;;17.70;84.02
48204;BME280;33994;50.998;5.864;2022-07-23T00:12:37;101305.88;;;17.61;84.93
48204;BME280;33994;50.998;5.864;2022-07-23T00:15:41;101314.66;;;17.62;85.44
48204;BME280;33994;50.998;5.864;2022-07-23T00:18:46;101318.19;;;17.62;85.86
48204;BME280;33994;50.998;5.864;2022-07-23T00:21:50;101322.66;;;17.60;85.58
48204;BME280;33994;50.998;5.864;2022-07-23T00:24:56;101313.97;;;17.57;85.22
48204;BME280;33994;50.998;5.864;2022-07-23T00:28:01;101307.94;;;17.53;85.38
48204;BME280;33994;50.998;5.864;2022-07-23T00:31:05;101312.47;;;17.49;85.22
48204;BME280;33994;50.998;5.864;2022-07-23T00:34:10;101313.47;;;17.47;85.26
48204;BME280;33994;50.998;5.864;2022-07-23T00:37:14;101313.56;;;17.44;85.58
48204;BME280;33994;50.998;5.864;2022-07-23T00:40:19;101305.81;;;17.39;86.07
48204;BME280;33994;50.998;5.864;2022-07-23T00:43:24;101305.06;;;17.34;87.24
48204;BME280;33994;50.998;5.864;2022-07-23T00:46:29;101308.81;;;17.29;88.02
48204;BME280;33994;50.998;5.864;2022-07-23T00:49:33;101302.94;;;17.20;89.05
48204;BME280;33994;50.998;5.864;2022-07-23T00:52:38;101292.31;;;17.22;89.32
48204;BME280;33994;50.998;5.864;2022-07-23T00:55:43;101303.63;;;17.25;89.35
48204;BME280;33994;50.998;5.864;2022-07-23T00:58:48;101303.63;;;17.25;89.46
48204;BME280;33994;50.998;5.864;2022-07-23T01:01:52;101303.72;;;17.22;89.50
48204;BME280;33994;50.998;5.864;2022-07-23T01:04:56;101297.69;;;17.19;89.83
48204;BME280;33994;50.998;5.864;2022-07-23T01:08:01;101299.41;;;17.20;89.94
48204;BME280;33994;50.998;5.864;2022-07-23T01:11:05;101294.13;;;17.20;89.84
48204;BME280;33994;50.998;5.864;2022-07-23T01:14:12;101295.91;;;17.19;89.71
48204;BME280;33994;50.998;5.864;2022-07-23T01:17:16;101296.84;;;17.18;89.13
48204;BME280;33994;50.998;5.864;2022-07-23T01:20:21;101287.22;;;17.16;88.51
48204;BME280;33994;50.998;5.864;2022-07-23T01:23:25;101289.06;;;17.14;88.36
48204;BME280;33994;50.998;5.864;2022-07-23T01:26:33;101287.44;;;17.10;88.55
48204;BME280;33994;50.998;5.864;2022-07-23T01:29:38;101288.41;;;17.07;88.29
48204;BME280;33994;50.998;5.864;2022-07-23T01:32:51;101285.88;;;17.04;87.99
48204;BME280;33994;50.998;5.864;2022-07-23T01:35:56;101281.59;;;17.00;87.77
48204;BME280;33994;50.998;5.864;2022-07-23T01:39:03;101283.50;;;16.96;88.01
48204;BME280;33994;50.998;5.864;2022-07-23T01:42:08;101281.06;;;16.90;88.39
48204;BME280;33994;50.998;5.864;2022-07-23T01:45:12;101285.78;;;16.81;88.47
48204;BME280;33994;50.998;5.864;2022-07-23T01:48:20;101293.06;;;16.72;89.51
48204;BME280;33994;50.998;5.864;2022-07-23T01:51:45;101286.88;;;16.73;89.18
48204;BME280;33994;50.998;5.864;2022-07-23T01:55:07;101291.25;;;16.74;89.53
48204;BME280;33994;50.998;5.864;2022-07-23T01:58:13;101286.09;;;16.70;89.66
48204;BME280;33994;50.998;5.864;2022-07-23T02:01:18;101281.81;;;16.67;89.90
48204;BME280;33994;50.998;5.864;2022-07-23T02:04:24;101288.06;;;16.65;90.38
48204;BME280;33994;50.998;5.864;2022-07-23T02:07:29;101288.06;;;16.65;90.23
48204;BME280;33994;50.998;5.864;2022-07-23T02:10:38;101285.47;;;16.63;90.08
48204;BME280;33994;50.998;5.864;2022-07-23T02:13:43;101283.84;;;16.59;90.05
48204;BME280;33994;50.998;5.864;2022-07-23T02:16:47;101289.22;;;16.56;90.17
48204;BME280;33994;50.998;5.864;2022-07-23T02:19:52;101295.47;;;16.53;90.34
48204;BME280;33994;50.998;5.864;2022-07-23T02:22:56;101283.13;;;16.54;90.45
48204;BME280;33994;50.998;5.864;2022-07-23T02:26:01;101280.38;;;16.57;90.39
48204;BME280;33994;50.998;5.864;2022-07-23T02:29:06;101277.91;;;16.52;90.01
48204;BME280;33994;50.998;5.864;2022-07-23T02:32:10;101270.06;;;16.49;90.13
48204;BME280;33994;50.998;5.864;2022-07-23T02:35:15;101272.03;;;16.43;90.26
48204;BME280;33994;50.998;5.864;2022-07-23T02:38:20;101280.03;;;16.40;90.59
48204;BME280;33994;50.998;5.864;2022-07-23T02:41:24;101281.97;;;16.35;90.78
48204;BME280;33994;50.998;5.864;2022-07-23T02:44:29;101276.78;;;16.32;91.13
48204;BME280;33994;50.998;5.864;2022-07-23T02:47:33;101277.66;;;16.32;91.07
48204;BME280;33994;50.998;5.864;2022-07-23T02:50:38;101272.50;;;16.29;91.11
48204;BME280;33994;50.998;5.864;2022-07-23T02:53:43;101279.78;;;16.21;91.40
48204;BME280;33994;50.998;5.864;2022-07-23T02:56:48;101287.72;;;16.19;91.62
48204;BME280;33994;50.998;5.864;2022-07-23T02:59:53;101285.09;;;16.19;91.68
48204;BME280;33994;50.998;5.864;2022-07-23T03:02:57;101280.88;;;16.14;91.88
48204;BME280;33994;50.998;5.864;2022-07-23T03:06:02;101280.06;;;16.12;91.89
48204;BME280;33994;50.998;5.864;2022-07-23T03:09:06;101284.53;;;16.10;92.10
48204;BME280;33994;50.998;5.864;2022-07-23T03:12:11;101282.84;;;16.07;92.33
48204;BME280;33994;50.998;5.864;2022-07-23T03:15:15;101293.41;;;16.07;92.50
48204;BME280;33994;50.998;5.864;2022-07-23T03:18:20;101288.13;;;16.07;92.75
48204;BME280;33994;50.998;5.864;2022-07-23T03:21:24;101287.16;;;16.10;92.67
48204;BME280;33994;50.998;5.864;2022-07-23T03:24:29;101287.97;;;16.12;92.71
48204;BME280;33994;50.998;5.864;2022-07-23T03:27:47;101292.47;;;16.08;92.58
48204;BME280;33994;50.998;5.864;2022-07-23T03:30:52;101302.22;;;16.06;92.31
48204;BME280;33994;50.998;5.864;2022-07-23T03:33:57;101297.03;;;16.03;92.03
48204;BME280;33994;50.998;5.864;2022-07-23T03:37:02;101288.28;;;16.01;92.09
48204;BME280;33994;50.998;5.864;2022-07-23T03:40:07;101287.41;;;16.02;92.22
48204;BME280;33994;50.998;5.864;2022-07-23T03:43:11;101285.66;;;16.01;91.76
48204;BME280;33994;50.998;5.864;2022-07-23T03:46:16;101286.66;;;15.97;91.43
48204;BME280;33994;50.998;5.864;2022-07-23T03:49:20;101290.31;;;15.93;91.30
48204;BME280;33994;50.998;5.864;2022-07-23T03:52:25;101286.81;;;15.92;91.52
48204;BME280;33994;50.998;5.864;2022-07-23T03:55:29;101295.66;;;15.90;91.97
48204;BME280;33994;50.998;5.864;2022-07-23T03:58:34;101295.78;;;15.87;92.00
48204;BME280;33994;50.998;5.864;2022-07-23T04:01:38;101297.63;;;15.83;92.06
48204;BME280;33994;50.998;5.864;2022-07-23T04:04:43;101298.44;;;15.85;92.06
48204;BME280;33994;50.998;5.864;2022-07-23T04:07:47;101306.31;;;15.87;91.85
48204;BME280;33994;50.998;5.864;2022-07-23T04:10:51;101308.22;;;15.81;91.68
48204;BME280;33994;50.998;5.864;2022-07-23T04:13:58;101319.75;;;15.77;91.80
48204;BME280;33994;50.998;5.864;2022-07-23T04:17:02;101314.41;;;15.80;92.18
48204;BME280;33994;50.998;5.864;2022-07-23T04:20:07;101317.03;;;15.80;91.97
48204;BME280;33994;50.998;5.864;2022-07-23T04:23:20;101316.97;;;15.84;92.24
48204;BME280;33994;50.998;5.864;2022-07-23T04:26:24;101327.50;;;15.84;91.90
48204;BME280;33994;50.998;5.864;2022-07-23T04:29:29;101326.66;;;15.83;92.01
48204;BME280;33994;50.998;5.864;2022-07-23T04:32:34;101316.88;;;15.87;92.21
48204;BME280;33994;50.998;5.864;2022-07-23T04:35:41;101306.22;;;15.90;92.28
48204;BME280;33994;50.998;5.864;2022-07-23T04:38:55;101324.66;;;15.90;91.90
48204;BME280;33994;50.998;5.864;2022-07-23T04:42:00;101332.50;;;15.93;91.79
48204;BME280;33994;50.998;5.864;2022-07-23T04:45:07;101335.84;;;15.98;91.63
48204;BME280;33994;50.998;5.864;2022-07-23T04:48:11;101342.84;;;16.00;91.62
48204;BME280;33994;50.998;5.864;2022-07-23T04:51:15;101346.25;;;16.04;91.51
48204;BME280;33994;50.998;5.864;2022-07-23T04:54:20;101349.72;;;16.06;91.44
48204;BME280;33994;50.998;5.864;2022-07-23T04:57:24;101344.31;;;16.09;90.82
48204;BME280;33994;50.998;5.864;2022-07-23T05:00:28;101348.81;;;16.07;90.78
48204;BME280;33994;50.998;5.864;2022-07-23T05:03:33;101348.81;;;16.05;90.51
48204;BME280;33994;50.998;5.864;2022-07-23T05:06:37;101343.47;;;16.09;90.85
48204;BME280;33994;50.998;5.864;2022-07-23T05:09:41;101346.94;;;16.11;90.40
48204;BME280;33994;50.998;5.864;2022-07-23T05:12:46;101353.00;;;16.14;90.28
48204;BME280;33994;50.998;5.864;2022-07-23T05:15:51;101358.28;;;16.14;90.14
48204;BME280;33994;50.998;5.864;2022-07-23T05:18:55;101359.16;;;16.13;90.06
48204;BME280;33994;50.998;5.864;2022-07-23T05:21:59;101361.47;;;16.24;89.88
48204;BME280;33994;50.998;5.864;2022-07-23T05:25:05;101366.44;;;16.35;89.44
48204;BME280;33994;50.998;5.864;2022-07-23T05:28:09;101373.91;;;16.50;88.25
48204;BME280;33994;50.998;5.864;2022-07-23T05:31:14;101380.09;;;16.49;87.82
48204;BME280;33994;50.998;5.864;2022-07-23T05:34:19;101373.28;;;16.42;87.96
48204;BME280;33994;50.998;5.864;2022-07-23T05:37:24;101380.34;;;16.40;87.98
48204;BME280;33994;50.998;5.864;2022-07-23T05:40:28;101375.00;;;16.43;87.98
48204;BME280;33994;50.998;5.864;2022-07-23T05:43:33;101383.75;;;16.45;87.70
48204;BME280;33994;50.998;5.864;2022-07-23T05:46:43;101380.38;;;16.68;86.65
48204;BME280;33994;50.998;5.864;2022-07-23T05:49:52;101373.56;;;16.89;85.53
48204;BME280;33994;50.998;5.864;2022-07-23T05:53:03;101378.47;;;17.01;84.63
48204;BME280;33994;50.998;5.864;2022-07-23T05:56:30;101378.94;;;17.14;84.05
48204;BME280;33994;50.998;5.864;2022-07-23T05:59:35;101387.47;;;17.22;83.37
48204;BME280;33994;50.998;5.864;2022-07-23T06:02:39;101389.75;;;17.33;82.77
48204;BME280;33994;50.998;5.864;2022-07-23T06:05:46;101391.13;;;17.43;82.32
48204;BME280;33994;50.998;5.864;2022-07-23T06:08:50;101394.34;;;17.52;82.11
48204;BME280;33994;50.998;5.864;2022-07-23T06:11:54;101388.09;;;17.80;80.55
48204;BME280;33994;50.998;5.864;2022-07-23T06:14:59;101385.06;;;17.91;79.33
48204;BME280;33994;50.998;5.864;2022-07-23T06:18:03;101381.75;;;18.09;78.29
48204;BME280;33994;50.998;5.864;2022-07-23T06:21:08;101377.38;;;18.32;77.63
48204;BME280;33994;50.998;5.864;2022-07-23T06:24:12;101383.59;;;18.53;76.61
48204;BME280;33994;50.998;5.864;2022-07-23T06:27:16;101379.28;;;18.74;76.12
48204;BME280;33994;50.998;5.864;2022-07-23T06:30:21;101387.34;;;18.92;75.68
48204;BME280;33994;50.998;5.864;2022-07-23T06:33:25;101391.53;;;18.98;75.62
48204;BME280;33994;50.998;5.864;2022-07-23T06:36:30;101390.25;;;18.86;75.91
48204;BME280;33994;50.998;5.864;2022-07-23T06:39:34;101390.97;;;18.90;76.26
48204;BME280;33994;50.998;5.864;2022-07-23T06:42:38;101379.88;;;19.02;76.05
48204;BME280;33994;50.998;5.864;2022-07-23T06:45:43;101391.44;;;19.21;75.36
48204;BME280;33994;50.998;5.864;2022-07-23T06:48:47;101393.53;;;19.13;75.48
48204;BME280;33994;50.998;5.864;2022-07-23T06:51:52;101396.47;;;19.28;75.42
48204;BME280;33994;50.998;5.864;2022-07-23T06:54:56;101400.19;;;19.44;75.04
48204;BME280;33994;50.998;5.864;2022-07-23T06:58:00;101397.66;;;19.63;74.88
48204;BME280;33994;50.998;5.864;2022-07-23T07:01:05;101403.25;;;19.76;74.27
48204;BME280;33994;50.998;5.864;2022-07-23T07:04:09;101403.25;;;19.76;74.01
48204;BME280;33994;50.998;5.864;2022-07-23T07:07:13;101412.63;;;19.84;74.26
48204;BME280;33994;50.998;5.864;2022-07-23T07:10:18;101412.69;;;20.03;73.34
48204;BME280;33994;50.998;5.864;2022-07-23T07:13:22;101405.50;;;20.05;72.78
48204;BME280;33994;50.998;5.864;2022-07-23T07:16:27;101402.31;;;19.97;72.93
48204;BME280;33994;50.998;5.864;2022-07-23T07:19:31;101416.41;;;19.99;72.58
48204;BME280;33994;50.998;5.864;2022-07-23T07:22:35;101408.44;;;19.99;72.67
48204;BME280;33994;50.998;5.864;2022-07-23T07:25:40;101412.47;;;20.08;72.17
48204;BME280;33994;50.998;5.864;2022-07-23T07:28:44;101421.94;;;20.32;71.44
48204;BME280;33994;50.998;5.864;2022-07-23T07:31:49;101420.53;;;20.63;70.37
48204;BME280;33994;50.998;5.864;2022-07-23T07:34:54;101413.38;;;20.65;70.14
48204;BME280;33994;50.998;5.864;2022-07-23T07:37:59;101413.78;;;20.56;70.45
48204;BME280;33994;50.998;5.864;2022-07-23T07:41:03;101407.97;;;20.66;70.31
48204;BME280;33994;50.998;5.864;2022-07-23T07:44:08;101417.44;;;20.91;69.63
48204;BME280;33994;50.998;5.864;2022-07-23T07:47:12;101415.56;;;20.74;69.83
48204;BME280;33994;50.998;5.864;2022-07-23T07:50:19;101424.59;;;20.72;69.60
48204;BME280;33994;50.998;5.864;2022-07-23T07:53:23;101430.75;;;20.53;69.37
48204;BME280;33994;50.998;5.864;2022-07-23T07:56:28;101432.47;;;20.54;69.79
48204;BME280;33994;50.998;5.864;2022-07-23T07:59:32;101436.72;;;20.58;69.96
48204;BME280;33994;50.998;5.864;2022-07-23T08:02:41;101439.44;;;20.57;68.64
48204;BME280;33994;50.998;5.864;2022-07-23T08:05:45;101443.19;;;20.53;69.02
48204;BME280;33994;50.998;5.864;2022-07-23T08:08:49;101445.53;;;20.59;68.44
48204;BME280;33994;50.998;5.864;2022-07-23T08:11:54;101442.03;;;20.58;68.13
48204;BME280;33994;50.998;5.864;2022-07-23T08:14:58;101442.16;;;20.55;67.88
48204;BME280;33994;50.998;5.864;2022-07-23T08:18:03;101439.44;;;20.57;67.94
48204;BME280;33994;50.998;5.864;2022-07-23T08:21:07;101428.81;;;20.57;67.97
48204;BME280;33994;50.998;5.864;2022-07-23T08:24:11;101423.28;;;20.61;67.69
48204;BME280;33994;50.998;5.864;2022-07-23T08:27:15;101436.78;;;20.76;67.62
48204;BME280;33994;50.998;5.864;2022-07-23T08:30:21;101441.59;;;20.86;65.97
48204;BME280;33994;50.998;5.864;2022-07-23T08:33:25;101450.25;;;20.90;64.00
48204;BME280;33994;50.998;5.864;2022-07-23T08:36:30;101452.13;;;20.88;61.80
48204;BME280;33994;50.998;5.864;2022-07-23T08:39:34;101451.19;;;20.89;61.44
48204;BME280;33994;50.998;5.864;2022-07-23T08:42:39;101453.09;;;20.87;60.91
48204;BME280;33994;50.998;5.864;2022-07-23T08:45:45;101454.00;;;20.86;60.21
48204;BME280;33994;50.998;5.864;2022-07-23T08:48:50;101453.63;;;20.94;60.82
48204;BME280;33994;50.998;5.864;2022-07-23T08:51:55;101458.88;;;20.95;60.26
48204;BME280;33994;50.998;5.864;2022-07-23T08:54:59;101457.84;;;20.98;60.21
48204;BME280;33994;50.998;5.864;2022-07-23T08:58:04;101453.91;;;21.06;60.28
48204;BME280;33994;50.998;5.864;2022-07-23T09:01:08;101455.47;;;21.10;59.77
48204;BME280;33994;50.998;5.864;2022-07-23T09:04:13;101464.41;;;21.09;59.45
48204;BME280;33994;50.998;5.864;2022-07-23T09:07:18;101463.47;;;21.10;59.44
48204;BME280;33994;50.998;5.864;2022-07-23T09:10:22;101460.50;;;21.17;59.22
48204;BME280;33994;50.998;5.864;2022-07-23T09:16:45;101460.94;;;21.07;59.68
48204;BME280;33994;50.998;5.864;2022-07-23T09:19:49;101467.25;;;21.05;60.18
48204;BME280;33994;50.998;5.864;2022-07-23T09:22:53;101469.53;;;21.14;60.35
48204;BME280;33994;50.998;5.864;2022-07-23T09:26:00;101458.66;;;21.19;59.39
48204;BME280;33994;50.998;5.864;2022-07-23T09:29:08;101453.56;;;21.14;59.41
48204;BME280;33994;50.998;5.864;2022-07-23T09:32:13;101446.56;;;21.11;59.47
48204;BME280;33994;50.998;5.864;2022-07-23T09:35:18;101450.41;;;21.06;59.68
48204;BME280;33994;50.998;5.864;2022-07-23T09:38:23;101443.28;;;21.06;59.29
48204;BME280;33994;50.998;5.864;2022-07-23T09:41:37;101448.78;;;21.21;58.00
48204;BME280;33994;50.998;5.864;2022-07-23T09:44:43;101449.50;;;21.24;58.43
48204;BME280;33994;50.998;5.864;2022-07-23T09:47:48;101453.03;;;21.25;58.16
48204;BME280;33994;50.998;5.864;2022-07-23T09:51:02;101455.00;;;21.21;57.63
48204;BME280;33994;50.998;5.864;2022-07-23T09:54:20;101455.19;;;21.17;57.42
48204;BME280;33994;50.998;5.864;2022-07-23T09:57:26;101450.81;;;21.16;57.41
48204;BME280;33994;50.998;5.864;2022-07-23T10:00:31;101453.47;;;21.16;57.11
48204;BME280;33994;50.998;5.864;2022-07-23T10:03:36;101453.34;;;21.19;56.83
48204;BME280;33994;50.998;5.864;2022-07-23T10:07:02;101453.81;;;21.27;56.02
48204;BME280;33994;50.998;5.864;2022-07-23T10:10:26;101454.28;;;21.35;55.30
48204;BME280;33994;50.998;5.864;2022-07-23T10:13:54;101447.09;;;21.37;55.33
48204;BME280;33994;50.998;5.864;2022-07-23T10:17:32;101444.91;;;21.45;55.62
48204;BME280;33994;50.998;5.864;2022-07-23T10:20:36;101448.34;;;21.47;56.09
48204;BME280;33994;50.998;5.864;2022-07-23T10:23:45;101448.19;;;21.50;54.94
48204;BME280;33994;50.998;5.864;2022-07-23T10:30:07;101444.28;;;21.57;54.22
48204;BME280;33994;50.998;5.864;2022-07-23T10:33:32;101441.63;;;21.57;52.42
48204;BME280;33994;50.998;5.864;2022-07-23T10:36:57;101439.09;;;21.54;52.50
48204;BME280;33994;50.998;5.864;2022-07-23T10:40:19;101444.22;;;21.59;52.64
48204;BME280;33994;50.998;5.864;2022-07-23T10:43:31;101437.84;;;21.61;53.44
48204;BME280;33994;50.998;5.864;2022-07-23T10:47:01;101431.53;;;21.64;52.38
48204;BME280;33994;50.998;5.864;2022-07-23T10:50:25;101434.81;;;21.69;51.35
48204;BME280;33994;50.998;5.864;2022-07-23T10:53:57;101442.47;;;21.75;51.54
48204;BME280;33994;50.998;5.864;2022-07-23T11:00:14;101453.69;;;21.82;52.18
48204;BME280;33994;50.998;5.864;2022-07-23T11:03:34;101440.97;;;21.87;51.35
48204;BME280;33994;50.998;5.864;2022-07-23T11:09:54;101430.56;;;22.00;50.63
48204;BME280;33994;50.998;5.864;2022-07-23T11:16:26;101425.94;;;22.03;50.53
48204;BME280;33994;50.998;5.864;2022-07-23T11:19:30;101435.63;;;22.04;50.45
48204;BME280;33994;50.998;5.864;2022-07-23T11:25:48;101432.81;;;22.07;49.62
48204;BME280;33994;50.998;5.864;2022-07-23T11:28:53;101428.34;;;22.08;49.00
48204;BME280;33994;50.998;5.864;2022-07-23T11:32:00;101423.72;;;22.11;49.37
48204;BME280;33994;50.998;5.864;2022-07-23T11:35:25;101430.44;;;22.19;48.62
48204;BME280;33994;50.998;5.864;2022-07-23T11:38:31;101431.06;;;22.24;47.90
48204;BME280;33994;50.998;5.864;2022-07-23T11:41:45;101426.59;;;22.24;46.23
48204;BME280;33994;50.998;5.864;2022-07-23T11:44:50;101427.28;;;22.28;46.38
48204;BME280;33994;50.998;5.864;2022-07-23T11:47:55;101422.41;;;22.36;46.86
48204;BME280;33994;50.998;5.864;2022-07-23T11:50:59;101422.31;;;22.38;46.76
48204;BME280;33994;50.998;5.864;2022-07-23T11:54:07;101429.28;;;22.40;46.70
48204;BME280;33994;50.998;5.864;2022-07-23T11:57:11;101433.97;;;22.35;47.04
48204;BME280;33994;50.998;5.864;2022-07-23T12:00:18;101422.41;;;22.36;47.54
48204;BME280;33994;50.998;5.864;2022-07-23T12:03:23;101423.25;;;22.37;47.60
48204;BME280;33994;50.998;5.864;2022-07-23T12:06:27;101421.19;;;22.42;47.66
48204;BME280;33994;50.998;5.864;2022-07-23T12:09:32;101415.59;;;22.46;47.57
48204;BME280;33994;50.998;5.864;2022-07-23T12:12:46;101424.47;;;22.47;45.52
48204;BME280;33994;50.998;5.864;2022-07-23T12:15:56;101417.13;;;22.50;46.44
48204;BME280;33994;50.998;5.864;2022-07-23T12:19:01;101414.94;;;22.58;46.63
48204;BME280;33994;50.998;5.864;2022-07-23T12:22:06;101417.59;;;22.58;46.71
48204;BME280;33994;50.998;5.864;2022-07-23T12:25:19;101415.84;;;22.57;46.48
48204;BME280;33994;50.998;5.864;2022-07-23T12:28:32;101414.16;;;22.56;47.15
48204;BME280;33994;50.998;5.864;2022-07-23T12:31:38;101415.78;;;22.59;46.82
48204;BME280;33994;50.998;5.864;2022-07-23T12:34:42;101409.66;;;22.57;47.15
48204;BME280;33994;50.998;5.864;2022-07-23T12:37:49;101412.44;;;22.55;47.43
48204;BME280;33994;50.998;5.864;2022-07-23T12:40:59;101412.06;;;22.62;47.05
48204;BME280;33994;50.998;5.864;2022-07-23T12:44:14;101413.31;;;22.72;46.81
48204;BME280;33994;50.998;5.864;2022-07-23T12:47:18;101407.97;;;22.72;47.01
48204;BME280;33994;50.998;5.864;2022-07-23T12:50:32;101405.22;;;22.73;46.74
48204;BME280;33994;50.998;5.864;2022-07-23T12:53:40;101400.78;;;22.74;47.31
48204;BME280;33994;50.998;5.864;2022-07-23T12:56:45;101398.53;;;22.82;46.96
48204;BME280;33994;50.998;5.864;2022-07-23T12:59:49;101398.16;;;22.88;47.02
48204;BME280;33994;50.998;5.864;2022-07-23T13:02:54;101394.56;;;22.89;46.75
48204;BME280;33994;50.998;5.864;2022-07-23T13:05:59;101403.41;;;22.90;47.20
48204;BME280;33994;50.998;5.864;2022-07-23T13:09:05;101403.16;;;22.94;47.14
48204;BME280;33994;50.998;5.864;2022-07-23T13:12:10;101401.44;;;22.93;46.72
48204;BME280;33994;50.998;5.864;2022-07-23T13:15:15;101397.91;;;22.93;46.63
48204;BME280;33994;50.998;5.864;2022-07-23T13:18:20;101400.66;;;22.91;46.69
48204;BME280;33994;50.998;5.864;2022-07-23T13:21:26;101402.34;;;22.92;47.21
48204;BME280;33994;50.998;5.864;2022-07-23T13:24:31;101414.66;;;22.95;46.89
48204;BME280;33994;50.998;5.864;2022-07-23T13:27:35;101405.72;;;22.96;47.21
48204;BME280;33994;50.998;5.864;2022-07-23T13:30:40;101396.78;;;22.97;46.64
48204;BME280;33994;50.998;5.864;2022-07-23T13:33:45;101406.59;;;22.96;46.77
48204;BME280;33994;50.998;5.864;2022-07-23T13:36:49;101402.13;;;22.97;46.59
48204;BME280;33994;50.998;5.864;2022-07-23T13:39:53;101397.63;;;22.97;46.98
48204;BME280;33994;50.998;5.864;2022-07-23T13:42:58;101389.47;;;23.00;46.85
48204;BME280;33994;50.998;5.864;2022-07-23T13:46:02;101394.59;;;23.03;46.59
48204;BME280;33994;50.998;5.864;2022-07-23T13:49:07;101392.38;;;23.12;47.07
48204;BME280;33994;50.998;5.864;2022-07-23T13:52:11;101384.38;;;23.12;46.82
48204;BME280;33994;50.998;5.864;2022-07-23T13:55:16;101392.94;;;23.17;46.88
48204;BME280;33994;50.998;5.864;2022-07-23T13:58:21;101389.50;;;23.15;46.91
48204;BME280;33994;50.998;5.864;2022-07-23T14:01:25;101382.44;;;23.14;46.93
48204;BME280;33994;50.998;5.864;2022-07-23T14:04:30;101394.31;;;23.24;47.35
48204;BME280;33994;50.998;5.864;2022-07-23T14:07:35;101383.81;;;23.21;47.02
48204;BME280;33994;50.998;5.864;2022-07-23T14:10:40;101377.50;;;23.22;47.04
48204;BME280;33994;50.998;5.864;2022-07-23T14:13:44;101375.69;;;23.22;46.77
48204;BME280;33994;50.998;5.864;2022-07-23T14:16:48;101368.47;;;23.24;47.15
48204;BME280;33994;50.998;5.864;2022-07-23T14:19:53;101378.75;;;23.30;47.22
48204;BME280;33994;50.998;5.864;2022-07-23T14:22:57;101376.97;;;23.31;47.16
48204;BME280;33994;50.998;5.864;2022-07-23T14:26:03;101380.59;;;23.30;46.95
48204;BME280;33994;50.998;5.864;2022-07-23T14:29:07;101378.97;;;23.27;47.05
48204;BME280;33994;50.998;5.864;2022-07-23T14:32:12;101382.50;;;23.28;47.00
48204;BME280;33994;50.998;5.864;2022-07-23T14:35:16;101374.56;;;23.26;46.76
48204;BME280;33994;50.998;5.864;2022-07-23T14:38:22;101381.72;;;23.26;46.59
48204;BME280;33994;50.998;5.864;2022-07-23T14:41:26;101381.53;;;23.29;46.58
48204;BME280;33994;50.998;5.864;2022-07-23T14:44:31;101380.50;;;23.31;46.57
48204;BME280;33994;50.998;5.864;2022-07-23T14:47:35;101373.63;;;23.27;46.51
48204;BME280;33994;50.998;5.864;2022-07-23T14:50:40;101379.72;;;23.29;46.53
48204;BME280;33994;50.998;5.864;2022-07-23T14:53:44;101376.97;;;23.31;46.72
48204;BME280;33994;50.998;5.864;2022-07-23T14:56:49;101379.44;;;23.34;46.63
48204;BME280;33994;50.998;5.864;2022-07-23T14:59:53;101372.06;;;23.39;46.78
48204;BME280;33994;50.998;5.864;2022-07-23T15:02:58;101373.59;;;23.43;46.78
48204;BME280;33994;50.998;5.864;2022-07-23T15:06:03;101371.69;;;23.45;46.79
48204;BME280;33994;50.998;5.864;2022-07-23T15:09:07;101371.50;;;23.48;46.56
48204;BME280;33994;50.998;5.864;2022-07-23T15:12:12;101370.47;;;23.51;46.62
48204;BME280;33994;50.998;5.864;2022-07-23T15:15:16;101369.63;;;23.50;46.49
48204;BME280;33994;50.998;5.864;2022-07-23T15:18:21;101368.66;;;23.51;46.39
48204;BME280;33994;50.998;5.864;2022-07-23T15:21:25;101372.06;;;23.53;46.38
48204;BME280;33994;50.998;5.864;2022-07-23T15:24:32;101372.84;;;23.55;46.62
48204;BME280;33994;50.998;5.864;2022-07-23T15:27:36;101372.00;;;23.55;46.30
48204;BME280;33994;50.998;5.864;2022-07-23T15:30:40;101362.34;;;23.52;46.43
48204;BME280;33994;50.998;5.864;2022-07-23T15:33:45;101374.75;;;23.53;46.52
48204;BME280;33994;50.998;5.864;2022-07-23T15:36:49;101374.84;;;23.52;46.87
48204;BME280;33994;50.998;5.864;2022-07-23T15:39:54;101358.25;;;23.47;46.75
48204;BME280;33994;50.998;5.864;2022-07-23T15:42:58;101366.34;;;23.45;46.80
48204;BME280;33994;50.998;5.864;2022-07-23T15:46:04;101370.75;;;23.46;46.93
48204;BME280;33994;50.998;5.864;2022-07-23T15:49:09;101366.34;;;23.45;46.70
48204;BME280;33994;50.998;5.864;2022-07-23T15:52:14;101368.94;;;23.47;46.92
48204;BME280;33994;50.998;5.864;2022-07-23T15:55:18;101364.28;;;23.50;46.95
48204;BME280;33994;50.998;5.864;2022-07-23T15:58:22;101363.22;;;23.53;46.79
48204;BME280;33994;50.998;5.864;2022-07-23T16:01:27;101357.81;;;23.54;46.53
48204;BME280;33994;50.998;5.864;2022-07-23T16:04:32;101357.69;;;23.56;46.56
48204;BME280;33994;50.998;5.864;2022-07-23T16:07:37;101353.88;;;23.60;46.23
48204;BME280;33994;50.998;5.864;2022-07-23T16:10:41;101347.50;;;23.63;46.36
48204;BME280;33994;50.998;5.864;2022-07-23T16:13:46;101347.50;;;23.63;46.31
48204;BME280;33994;50.998;5.864;2022-07-23T16:16:50;101350.25;;;23.61;46.57
48204;BME280;33994;50.998;5.864;2022-07-23T16:19:55;101351.03;;;23.63;46.42
48204;BME280;33994;50.998;5.864;2022-07-23T16:22:59;101350.91;;;23.65;46.16
48204;BME280;33994;50.998;5.864;2022-07-23T16:26:04;101343.69;;;23.67;46.34
48204;BME280;33994;50.998;5.864;2022-07-23T16:29:08;101342.72;;;23.68;46.61
48204;BME280;33994;50.998;5.864;2022-07-23T16:32:12;101347.13;;;23.69;46.73